Time;durP1;ratioP1;P1;durP2;ratioP2;P2;SDS_P1;SDS_P2;PMS_P1;PMS_P2;Temp;Humidity;BMP_temperature;BMP_pressure;BME280_temperature;BME280_humidity;BME280_pressure;Samples;Min_cycle;Max_cycle;Signal;HPM_P1;HPM_P2
2021/03/12 00:00:19;;;;;;;5.47;4.75;;;;;;;10.61;40.51;99964.84;1764879;79;21186;-66
2021/03/12 00:02:49;;;;;;;4.97;4.22;;;;;;;10.60;40.46;99961.36;1754629;79;21135;-67
2021/03/12 00:05:16;;;;;;;6.50;4.87;;;;;;;10.60;40.46;99940.58;1777155;80;21167;-65
2021/03/12 00:07:44;;;;;;;5.75;4.75;;;;;;;10.59;40.46;99953.55;1766567;80;21181;-67
2021/03/12 00:10:15;;;;;;;6.47;4.97;;;;;;;10.56;40.46;99934.77;1763824;80;21251;-65
2021/03/12 00:12:43;;;;;;;6.28;4.90;;;;;;;10.56;40.50;99945.89;1766344;79;21587;-65
2021/03/12 00:15:17;;;;;;;5.95;4.95;;;;;;;10.55;40.48;99955.70;1765569;80;21198;-66
2021/03/12 00:17:45;;;;;;;5.90;4.67;;;;;;;10.54;40.44;99930.11;1770487;79;21137;-66
2021/03/12 00:20:21;;;;;;;5.10;4.25;;;;;;;10.53;40.44;99934.28;1766242;79;21602;-66
2021/03/12 00:22:50;;;;;;;6.65;5.10;;;;;;;10.52;40.47;99920.14;1763159;79;21372;-65
2021/03/12 00:25:25;;;;;;;6.85;4.67;;;;;;;10.51;40.47;99935.77;1764004;79;21221;-65
2021/03/12 00:27:52;;;;;;;5.40;4.72;;;;;;;10.51;40.43;99945.57;1772153;79;21158;-67
2021/03/12 00:30:21;;;;;;;8.18;5.05;;;;;;;10.49;40.40;99911.67;1772960;79;21193;-66
2021/03/12 00:32:49;;;;;;;6.65;5.03;;;;;;;10.48;40.40;99907.37;1773044;78;21177;-67
2021/03/12 00:35:16;;;;;;;8.05;4.95;;;;;;;10.46;40.40;99918.16;1786020;79;21658;-66
2021/03/12 00:37:44;;;;;;;9.53;4.35;;;;;;;10.47;40.39;99887.95;1782822;79;21161;-65
2021/03/12 00:40:16;;;;;;;6.72;4.60;;;;;;;10.46;40.39;99914.67;1775747;78;21158;-65
2021/03/12 00:42:44;;;;;;;6.97;4.60;;;;;;;10.46;40.40;99901.39;1775882;78;21607;-67
2021/03/12 00:45:15;;;;;;;7.97;5.05;;;;;;;10.43;40.42;99894.09;1776467;80;21153;-66
2021/03/12 00:47:45;;;;;;;7.25;5.17;;;;;;;10.42;40.40;99891.08;1765616;80;21378;-67
2021/03/12 00:50:17;;;;;;;7.83;5.42;;;;;;;10.41;40.37;99893.42;1774864;78;21176;-67
2021/03/12 00:52:44;;;;;;;7.70;5.12;;;;;;;10.40;40.37;99901.03;1760617;78;21190;-66
2021/03/12 00:55:13;;;;;;;7.28;4.72;;;;;;;10.38;40.33;99876.47;1740999;81;21632;-66
2021/03/12 00:57:42;;;;;;;6.75;4.70;;;;;;;10.38;40.36;99863.19;1730654;81;21149;-66
2021/03/12 01:00:13;;;;;;;6.08;4.28;;;;;;;10.37;40.33;99861.55;1732576;81;21450;-65
2021/03/12 01:02:41;;;;;;;9.75;5.17;;;;;;;10.36;40.33;99875.80;1734864;82;21791;-65
2021/03/12 01:05:11;;;;;;;5.85;4.78;;;;;;;10.35;40.32;99848.94;1738239;82;21139;-66
2021/03/12 01:07:38;;;;;;;6.10;4.85;;;;;;;10.35;40.33;99854.72;1708962;82;21153;-66
2021/03/12 01:10:08;;;;;;;7.08;4.62;;;;;;;10.34;40.33;99843.27;1730431;81;21148;-67
2021/03/12 01:12:36;;;;;;;7.40;4.95;;;;;;;10.32;40.34;99841.28;1721691;81;21360;-67
2021/03/12 01:15:07;;;;;;;6.15;5.12;;;;;;;10.31;40.35;99832.97;1725565;81;21208;-67
2021/03/12 01:17:36;;;;;;;5.33;4.60;;;;;;;10.30;40.29;99818.05;1736248;82;21235;-66
2021/03/12 01:20:08;;;;;;;7.00;5.12;;;;;;;10.30;40.31;99807.42;1729089;81;21135;-66
2021/03/12 01:22:37;;;;;;;8.00;4.80;;;;;;;10.30;40.34;99822.50;1733930;82;21154;-67
2021/03/12 01:25:09;;;;;;;8.90;5.72;;;;;;;10.29;40.37;99842.07;1729118;81;21585;-66
2021/03/12 01:27:41;;;;;;;8.05;4.67;;;;;;;10.27;40.39;99810.36;1733891;82;21194;-67
2021/03/12 01:30:21;;;;;;;7.40;5.15;;;;;;;10.27;40.39;99834.27;1735967;81;21178;-66
2021/03/12 01:32:48;;;;;;;5.95;4.85;;;;;;;10.25;40.40;99841.56;1737680;81;21222;-66
2021/03/12 01:35:18;;;;;;;6.35;4.70;;;;;;;10.24;40.41;99834.10;1747600;81;21177;-66
2021/03/12 01:37:46;;;;;;;6.85;5.30;;;;;;;10.24;40.42;99829.30;1735975;81;21369;-67
2021/03/12 01:40:17;;;;;;;5.62;4.17;;;;;;;10.23;40.40;99837.73;1719164;82;21206;-66
2021/03/12 01:42:47;;;;;;;6.10;4.55;;;;;;;10.22;40.40;99836.09;1740266;81;21153;-67
2021/03/12 01:45:20;;;;;;;6.35;4.28;;;;;;;10.20;40.40;99835.42;1731101;82;21166;-67
2021/03/12 01:47:49;;;;;;;6.20;5.15;;;;;;;10.20;40.40;99835.42;1736336;82;21171;-67
2021/03/12 01:50:18;;;;;;;6.58;4.90;;;;;;;10.19;40.39;99818.33;1734291;81;21166;-66
2021/03/12 01:52:45;;;;;;;6.25;4.50;;;;;;;10.18;40.35;99816.69;1738973;81;21346;-65
2021/03/12 01:55:32;;;;;;;6.17;5.20;;;;;;;10.16;40.33;99807.55;1727291;81;21187;-65
2021/03/12 01:58:03;;;;;;;5.67;4.37;;;;;;;10.15;40.35;99801.89;1722799;82;21162;-65
2021/03/12 02:00:32;;;;;;;6.03;4.25;;;;;;;10.13;40.31;99789.28;1733757;81;21217;-66
2021/03/12 02:03:08;;;;;;;8.35;5.28;;;;;;;10.13;40.31;99796.42;1730996;82;21239;-66
2021/03/12 02:05:45;;;;;;;10.88;5.05;;;;;;;10.14;40.32;99836.56;1811205;78;28691;-69
2021/03/12 02:08:14;;;;;;;6.58;4.58;;;;;;;10.10;40.29;99775.03;1780767;80;21151;-66
2021/03/12 02:10:45;;;;;;;6.47;4.87;;;;;;;10.09;40.28;99780.49;1771695;79;21162;-65
2021/03/12 02:13:56;;;;;;;5.20;4.65;;;;;;;10.09;40.29;99792.44;1770685;80;21175;-66
2021/03/12 02:16:41;;;;;;;5.60;4.30;;;;;;;10.09;40.33;99770.70;1771712;78;21591;-66
2021/03/12 02:19:30;;;;;;;6.72;4.45;;;;;;;10.07;40.32;99763.91;1780948;80;21139;-65
2021/03/12 02:21:58;;;;;;;5.47;4.25;;;;;;;10.03;40.35;99780.14;1786783;78;21571;-66
2021/03/12 02:24:41;;;;;;;7.30;4.33;;;;;;;10.02;40.38;99757.74;1755006;80;21451;-66
2021/03/12 02:27:16;;;;;;;8.03;4.10;;;;;;;10.01;40.38;99754.77;1785718;80;21135;-67
2021/03/12 02:29:49;;;;;;;7.78;4.58;;;;;;;10.00;40.40;99749.12;1774217;80;21117;-67
2021/03/12 02:32:20;;;;;;;6.95;4.67;;;;;;;9.98;40.45;99799.70;1743314;80;21174;-66
2021/03/12 02:34:49;;;;;;;5.83;4.33;;;;;;;9.97;40.45;99750.28;1776504;80;21104;-66
2021/03/12 02:37:20;;;;;;;6.75;4.70;;;;;;;9.98;40.47;99744.47;1775923;80;21367;-66
2021/03/12 02:39:56;;;;;;;5.72;3.92;;;;;;;9.96;40.46;99744.63;1750091;78;21127;-65
2021/03/12 02:42:26;;;;;;;7.72;4.80;;;;;;;9.98;40.45;99745.30;1769159;80;21163;-66
2021/03/12 02:44:59;;;;;;;5.35;4.85;;;;;;;9.97;40.46;99765.39;1737744;80;21143;-65
2021/03/12 02:47:30;;;;;;;6.03;4.15;;;;;;;9.96;40.47;99758.41;1763441;79;21190;-66
2021/03/12 02:50:00;;;;;;;6.10;4.25;;;;;;;9.96;40.47;99747.79;1770498;79;21370;-65
2021/03/12 02:52:28;;;;;;;4.55;4.15;;;;;;;9.95;40.48;99769.52;1784563;79;21186;-65
2021/03/12 02:54:56;;;;;;;5.58;4.08;;;;;;;9.96;40.48;99738.50;1797053;79;21131;-65
2021/03/12 02:57:25;;;;;;;5.67;4.25;;;;;;;9.94;40.47;99734.67;1787696;79;21107;-67
2021/03/12 02:59:55;;;;;;;5.45;4.12;;;;;;;9.94;40.50;99729.88;1773697;79;21169;-67
2021/03/12 03:02:32;;;;;;;5.80;4.50;;;;;;;9.97;40.50;99737.02;1748749;79;28746;-65
2021/03/12 03:05:09;;;;;;;5.30;4.12;;;;;;;9.93;40.51;99715.78;1704691;81;21198;-64
2021/03/12 03:07:39;;;;;;;6.75;4.67;;;;;;;9.91;40.53;99740.33;1719630;81;22166;-65
2021/03/12 03:10:10;;;;;;;5.50;4.58;;;;;;;9.91;40.53;99720.91;1743885;81;21161;-66
2021/03/12 03:12:38;;;;;;;7.20;4.40;;;;;;;9.90;40.50;99708.14;1739265;81;21177;-65
2021/03/12 03:15:08;;;;;;;7.72;4.47;;;;;;;9.89;40.50;99730.38;1714027;82;21633;-65
2021/03/12 03:17:36;;;;;;;5.37;4.08;;;;;;;9.90;40.52;99708.64;1742128;81;21200;-67
2021/03/12 03:20:11;;;;;;;6.12;4.35;;;;;;;9.89;40.54;99703.84;1742932;80;21192;-66
2021/03/12 03:22:43;;;;;;;6.28;4.67;;;;;;;9.88;40.57;99700.84;1732993;81;21189;-66
2021/03/12 03:25:12;;;;;;;5.28;4.20;;;;;;;9.87;40.58;99705.83;1729318;81;21180;-66
2021/03/12 03:27:41;;;;;;;8.10;5.20;;;;;;;9.87;40.60;99703.18;1745658;81;21164;-67
2021/03/12 03:30:12;;;;;;;5.65;4.67;;;;;;;9.87;40.61;99691.72;1738664;81;21631;-66
2021/03/12 03:32:40;;;;;;;5.17;4.50;;;;;;;9.86;40.62;99682.94;1737038;81;21248;-67
2021/03/12 03:35:11;;;;;;;6.00;4.72;;;;;;;9.85;40.62;99686.59;1739256;81;21205;-66
2021/03/12 03:37:41;;;;;;;5.12;4.20;;;;;;;9.85;40.64;99694.55;1734416;81;21577;-66
2021/03/12 03:40:11;;;;;;;5.42;4.22;;;;;;;9.84;40.63;99683.59;1722665;81;21170;-66
2021/03/12 03:42:45;;;;;;;6.33;4.58;;;;;;;9.83;40.58;99681.45;1739359;81;21125;-66
2021/03/12 03:45:15;;;;;;;8.00;5.03;;;;;;;9.83;40.62;99692.06;1736297;82;22339;-65
2021/03/12 03:47:44;;;;;;;5.03;4.22;;;;;;;9.82;40.62;99666.51;1738771;81;21114;-68
2021/03/12 03:50:14;;;;;;;5.60;4.45;;;;;;;9.82;40.63;99674.47;1727055;81;21194;-67
2021/03/12 03:52:43;;;;;;;6.45;4.47;;;;;;;9.81;40.62;99653.41;1710106;81;21174;-68
2021/03/12 03:55:13;;;;;;;5.47;4.30;;;;;;;9.81;40.64;99636.16;1712635;82;21177;-67
2021/03/12 03:57:40;;;;;;;6.05;4.45;;;;;;;9.80;40.63;99670.33;1737978;81;21416;-68
2021/03/12 04:00:11;;;;;;;5.80;4.67;;;;;;;9.79;40.63;99652.27;1734627;82;21205;-67
2021/03/12 04:02:46;;;;;;;6.17;4.60;;;;;;;9.79;40.64;99662.03;1737008;81;21210;-66
2021/03/12 04:05:16;;;;;;;6.70;4.50;;;;;;;9.78;40.63;99657.73;1737986;82;21198;-67
2021/03/12 04:07:46;;;;;;;6.15;4.53;;;;;;;9.77;40.57;99711.77;1674558;82;21181;-68
2021/03/12 04:10:16;;;;;;;7.20;4.67;;;;;;;9.75;40.50;99696.01;1729439;81;21356;-68
2021/03/12 04:12:44;;;;;;;6.28;4.78;;;;;;;9.75;40.46;99675.29;1724519;81;21127;-66
2021/03/12 04:15:16;;;;;;;6.25;4.10;;;;;;;9.75;40.43;99654.06;1710595;82;21186;-66
2021/03/12 04:17:44;;;;;;;4.80;4.05;;;;;;;9.74;40.45;99643.14;1734359;81;21587;-66
2021/03/12 04:20:14;;;;;;;5.60;4.33;;;;;;;9.73;40.48;99671.97;1730308;81;21154;-65
2021/03/12 04:22:42;;;;;;;6.97;5.12;;;;;;;9.71;40.50;99681.92;1734204;81;22278;-66
2021/03/12 04:25:11;;;;;;;5.00;4.33;;;;;;;9.70;40.51;99679.77;1706794;82;21131;-66
2021/03/12 04:27:39;;;;;;;5.60;4.30;;;;;;;9.69;40.54;99646.77;1735737;81;21163;-67
2021/03/12 04:30:09;;;;;;;5.55;4.37;;;;;;;9.68;40.55;99656.56;1738952;81;21142;-67
2021/03/12 04:32:38;;;;;;;5.87;4.35;;;;;;;9.68;40.56;99668.97;1726643;81;21215;-67
2021/03/12 04:35:08;;;;;;;6.03;4.97;;;;;;;9.67;40.59;99689.88;1735859;81;23460;-66
2021/03/12 04:37:36;;;;;;;5.78;4.58;;;;;;;9.66;40.58;99667.84;1683236;82;21186;-67
2021/03/12 04:40:06;;;;;;;6.80;4.87;;;;;;;9.65;40.60;99703.30;1735414;80;21182;-67
2021/03/12 04:42:34;;;;;;;5.95;4.72;;;;;;;9.66;40.60;99670.48;1736113;80;21174;-66
2021/03/12 04:45:07;;;;;;;5.95;4.42;;;;;;;9.65;40.61;99713.91;1708541;82;21187;-67
2021/03/12 04:47:36;;;;;;;5.47;3.95;;;;;;;9.64;40.55;99693.70;1738519;80;21219;-68
2021/03/12 04:50:08;;;;;;;5.72;4.72;;;;;;;9.62;40.55;99720.38;1718237;80;21162;-66
2021/03/12 04:52:37;;;;;;;6.22;4.30;;;;;;;9.61;40.59;99686.88;1735029;80;21157;-66
2021/03/12 04:55:10;;;;;;;7.15;4.53;;;;;;;9.60;40.59;99689.21;1739880;80;21212;-67
2021/03/12 04:57:39;;;;;;;6.22;4.40;;;;;;;9.59;40.55;99703.45;1736537;82;21129;-65
2021/03/12 05:00:10;;;;;;;6.85;4.45;;;;;;;9.59;40.57;99675.60;1736261;82;22210;-66
2021/03/12 05:02:42;;;;;;;5.85;4.58;;;;;;;9.57;40.59;99680.23;1729493;80;21170;-66
2021/03/12 05:05:12;;;;;;;7.15;4.85;;;;;;;9.57;40.58;99666.98;1735505;80;21218;-67
2021/03/12 05:07:40;;;;;;;6.08;4.58;;;;;;;9.58;40.60;99675.76;1734210;80;21583;-67
2021/03/12 05:10:13;;;;;;;;;;;;;;;9.56;40.61;99675.95;1735328;80;21661;-67
2021/03/12 05:12:40;;;;;;;5.00;4.27;;;;;;;9.56;40.63;99701.61;1707152;80;21423;-66
2021/03/12 05:15:12;;;;;;;10.28;5.67;;;;;;;9.48;40.71;99701.09;1704001;82;21178;-65
2021/03/12 05:17:40;;;;;;;6.28;5.05;;;;;;;9.48;40.73;99683.86;1775465;79;21186;-64
2021/03/12 05:20:09;;;;;;;6.72;4.92;;;;;;;9.50;40.73;99703.59;1746234;81;21158;-66
2021/03/12 05:22:36;;;;;;;6.87;4.83;;;;;;;9.48;40.71;99702.92;1740116;81;21157;-66
2021/03/12 05:25:06;;;;;;;5.65;4.42;;;;;;;9.49;40.70;99659.52;1689753;82;21342;-66
2021/03/12 05:27:34;;;;;;;6.40;4.62;;;;;;;9.49;40.69;99656.88;1677664;83;21187;-69
2021/03/12 05:30:03;;;;;;;7.25;4.53;;;;;;;9.48;40.69;99645.41;1693793;82;21198;-67
2021/03/12 05:32:31;;;;;;;5.42;4.30;;;;;;;9.49;40.69;99655.55;1680354;83;21150;-67
2021/03/12 05:34:59;;;;;;;5.45;4.50;;;;;;;9.49;40.70;99642.28;1720950;82;21491;-68
2021/03/12 05:37:28;;;;;;;7.17;4.70;;;;;;;9.42;40.73;99648.22;1710321;82;21366;-68
2021/03/12 05:39:56;;;;;;;6.97;4.60;;;;;;;9.48;40.71;99637.45;1737449;81;21190;-66
2021/03/12 05:42:25;;;;;;;7.90;4.70;;;;;;;9.49;40.77;99653.71;1737632;81;21174;-67
2021/03/12 05:44:54;;;;;;;5.53;4.33;;;;;;;9.49;41.07;99637.80;1769652;79;21150;-66
2021/03/12 05:47:23;;;;;;;10.78;5.00;;;;;;;9.49;41.17;99644.44;1767877;80;21193;-69
2021/03/12 05:49:52;;;;;;;5.85;4.72;;;;;;;9.51;41.17;99656.20;1775307;79;22125;-67
2021/03/12 05:52:20;;;;;;;5.83;5.12;;;;;;;9.52;41.17;99660.50;1746021;79;21185;-66
2021/03/12 05:54:48;;;;;;;6.37;4.53;;;;;;;9.52;41.15;99650.75;1778939;79;21141;-67
2021/03/12 05:57:17;;;;;;;6.00;4.60;;;;;;;9.52;41.15;99664.01;1747144;80;21558;-67
2021/03/12 05:59:44;;;;;;;6.22;4.40;;;;;;;9.54;41.11;99648.77;1780194;80;21158;-67
2021/03/12 06:02:12;;;;;;;6.60;5.17;;;;;;;9.54;41.11;99658.05;1753312;80;21371;-67
2021/03/12 06:04:45;;;;;;;6.35;5.45;;;;;;;9.55;41.09;99666.31;1761001;79;21190;-66
2021/03/12 06:07:16;;;;;;;6.62;5.05;;;;;;;9.55;41.07;99631.84;1723922;80;21646;-68
2021/03/12 06:09:46;;;;;;;;;;;;;;;9.57;41.02;99629.84;1766817;80;21171;-65
2021/03/12 06:12:14;;;;;;;6.92;4.50;;;;;;;9.57;41.00;99621.89;1773276;79;20553;-67
2021/03/12 06:14:56;;;;;;;6.67;5.00;;;;;;;9.51;41.08;99590.73;1764609;79;21422;-68
2021/03/12 06:17:46;;;;;;;6.10;4.90;;;;;;;9.56;41.04;99588.91;1770428;79;28668;-68
2021/03/12 06:20:18;;;;;;;7.83;4.62;;;;;;;9.53;41.02;99602.00;1735993;82;21572;-68
2021/03/12 06:22:51;;;;;;;6.50;4.92;;;;;;;9.55;41.01;99596.54;1747259;80;21353;-67
2021/03/12 06:25:23;;;;;;;9.97;5.97;;;;;;;9.55;41.00;99596.03;1750208;80;21155;-66
2021/03/12 06:28:18;;;;;;;6.55;4.90;;;;;;;9.58;40.98;99583.78;1750051;80;21145;-67
2021/03/12 06:30:59;;;;;;;6.72;4.55;;;;;;;9.58;40.97;99573.17;1746357;81;21180;-66
2021/03/12 06:33:31;;;;;;;8.00;4.87;;;;;;;9.58;40.94;99594.39;1756147;79;21146;-67
2021/03/12 06:36:05;;;;;;;6.30;4.55;;;;;;;9.60;40.95;99600.83;1743728;79;22264;-65
2021/03/12 06:38:39;;;;;;;6.87;5.28;;;;;;;9.61;40.90;99582.61;1745530;79;21154;-67
2021/03/12 06:41:08;;;;;;;7.60;5.62;;;;;;;9.63;40.89;99614.59;1746923;79;21177;-66
2021/03/12 06:43:43;;;;;;;6.30;4.85;;;;;;;9.65;40.83;99590.56;1745732;79;21130;-68
2021/03/12 06:46:13;;;;;;;5.45;4.37;;;;;;;9.65;40.78;99569.34;1741465;81;21206;-67
2021/03/12 06:49:00;;;;;;;6.45;4.97;;;;;;;9.72;40.77;99584.12;1743171;79;28296;-67
2021/03/12 06:51:33;;;;;;;5.87;4.65;;;;;;;9.70;40.76;99578.16;1718705;81;21178;-67
2021/03/12 06:54:06;;;;;;;7.58;5.15;;;;;;;9.70;40.72;99605.50;1753157;81;21155;-67
2021/03/12 06:56:40;;;;;;;7.40;4.62;;;;;;;9.73;40.70;99612.28;1756451;81;21242;-66
2021/03/12 06:59:09;;;;;;;6.53;4.87;;;;;;;9.73;40.69;99586.58;1725497;81;21220;-67
2021/03/12 07:01:38;;;;;;;7.12;5.22;;;;;;;9.75;40.63;99573.98;1719815;82;21135;-67
2021/03/12 07:04:14;;;;;;;6.27;5.07;;;;;;;9.78;40.60;99578.14;1725974;82;21145;-68
2021/03/12 07:07:01;;;;;;;8.23;4.87;;;;;;;9.80;40.57;99568.19;1731620;80;21459;-68
2021/03/12 07:09:31;;;;;;;5.53;4.60;;;;;;;9.82;40.56;99562.22;1783717;79;21194;-68
2021/03/12 07:12:09;;;;;;;6.00;4.75;;;;;;;9.89;40.54;99572.97;1762976;79;28328;-68
2021/03/12 07:14:54;;;;;;;6.15;5.08;;;;;;;9.87;40.51;99582.45;1721159;82;21143;-68
2021/03/12 07:17:24;;;;;;;6.45;4.80;;;;;;;9.88;40.45;99561.54;1744290;81;21470;-68
2021/03/12 07:19:53;;;;;;;6.33;4.47;;;;;;;9.90;40.44;99575.47;1744496;80;21174;-67
2021/03/12 07:22:20;;;;;;;6.92;5.20;;;;;;;9.93;40.41;99563.20;1746280;80;21159;-67
2021/03/12 07:24:50;;;;;;;11.15;5.42;;;;;;;9.94;40.36;99529.02;1748835;81;21155;-68
2021/03/12 07:27:19;;;;;;;5.95;4.60;;;;;;;9.97;40.31;99535.83;1752093;80;21171;-68
2021/03/12 07:30:01;;;;;;;7.25;5.12;;;;;;;9.98;40.29;99542.27;1747841;80;21411;-77
2021/03/12 07:32:32;;;;;;;7.28;5.08;;;;;;;9.99;40.27;99576.30;1713730;82;21207;-75
2021/03/12 07:35:00;;;;;;;8.03;5.12;;;;;;;10.00;40.25;99548.23;1698161;82;21200;-74
2021/03/12 07:37:47;;;;;;;8.30;4.78;;;;;;;10.00;40.24;99548.23;1718355;82;21139;-79
2021/03/12 07:40:18;;;;;;;5.92;4.33;;;;;;;10.01;40.23;99555.22;1725501;81;21163;-81
2021/03/12 07:42:46;;;;;;;6.47;4.40;;;;;;;10.00;40.22;99582.73;1724452;82;21652;-81
2021/03/12 07:45:37;;;;;;;8.30;4.58;;;;;;;10.04;40.21;99557.55;1806570;79;28181;-81
2021/03/12 07:50:32;;;;;;;8.20;5.08;;;;;;;10.05;40.19;99523.86;1804564;77;28602;-79
2021/03/12 07:53:02;;;;;;;6.80;5.03;;;;;;;9.98;40.21;99504.30;1736391;80;21112;-80
2021/03/12 07:55:59;;;;;;;8.03;5.10;;;;;;;10.00;40.21;99492.51;1845997;75;28209;-79
2021/03/12 07:58:58;;;;;;;6.78;4.75;;;;;;;9.95;40.21;99516.09;1840086;77;21115;-78
2021/03/12 08:01:52;;;;;;;6.53;4.92;;;;;;;9.94;40.27;99509.11;1794961;78;21639;-80
2021/03/12 08:04:47;;;;;;;5.12;4.55;;;;;;;9.96;40.28;99500.48;1801464;77;28093;-71
2021/03/12 08:07:23;;;;;;;5.60;4.65;;;;;;;9.92;40.29;99504.48;1799414;79;21130;-73
2021/03/12 08:09:55;;;;;;;9.73;5.15;;;;;;;9.93;40.29;99549.08;1806895;79;21716;-74
2021/03/12 08:12:41;;;;;;;5.83;4.78;;;;;;;9.94;40.29;99522.38;1792478;78;21143;-75
2021/03/12 08:15:30;;;;;;;6.65;4.65;;;;;;;9.93;40.30;99560.55;1809301;78;21239;-74
2021/03/12 08:18:22;;;;;;;9.08;5.12;;;;;;;9.94;40.30;99510.95;1728228;81;21186;-73
2021/03/12 08:20:52;;;;;;;5.35;4.65;;;;;;;9.92;40.28;99527.03;1758739;80;21207;-76
2021/03/12 08:23:34;;;;;;;6.65;4.83;;;;;;;9.95;40.27;99518.75;1762894;79;28285;-70
2021/03/12 08:26:10;;;;;;;7.53;5.03;;;;;;;9.93;40.21;99518.56;1733165;82;21211;-67
2021/03/12 08:28:56;;;;;;;7.58;4.83;;;;;;;9.93;40.18;99525.20;1734219;80;21244;-67
2021/03/12 08:31:40;;;;;;;5.85;4.70;;;;;;;9.93;40.19;99514.11;1727197;81;21202;-67
2021/03/12 08:34:38;;;;;;;;;;;;;;;9.94;40.21;99518.91;1739499;77;21181;-68
2021/03/12 08:37:32;;;;;;;6.97;4.33;;;;;;;9.95;40.18;99559.05;1791364;79;20270;-69
2021/03/12 08:40:21;;;;;;;8.68;4.85;;;;;;;9.86;40.20;99514.95;1785653;77;21553;-68
2021/03/12 08:43:14;;;;;;;;;;;;;;;9.87;40.16;99512.61;1797746;79;21357;-69
2021/03/12 08:45:57;;;;;;;8.33;4.92;;;;;;;9.87;40.11;99498.87;1790845;79;20289;-71
2021/03/12 08:48:33;;;;;;;8.10;4.83;;;;;;;9.80;40.18;99515.95;1807988;77;21169;-71
2021/03/12 08:51:06;;;;;;;8.08;4.75;;;;;;;9.82;40.13;99497.22;1763351;79;21185;-70
2021/03/12 08:53:38;;;;;;;8.48;4.95;;;;;;;9.85;40.02;99498.22;1782999;77;21153;-69
2021/03/12 08:56:08;;;;;;;8.45;4.33;;;;;;;9.85;40.02;99475.66;1796025;77;21198;-68
2021/03/12 08:58:46;;;;;;;5.50;4.15;;;;;;;9.86;40.00;99489.24;1784422;79;21181;-69
2021/03/12 09:01:31;;;;;;;6.17;4.53;;;;;;;9.88;39.99;99475.81;1797164;79;21117;-67
2021/03/12 09:04:03;;;;;;;10.80;4.50;;;;;;;9.88;39.95;99497.86;1795983;77;21161;-66
2021/03/12 09:06:35;;;;;;;6.80;4.40;;;;;;;9.89;39.95;99488.06;1794537;79;21138;-67
2021/03/12 09:09:08;;;;;;;11.38;4.50;;;;;;;9.89;39.91;99467.69;1794242;77;23262;-68
2021/03/12 09:11:44;;;;;;;7.47;5.00;;;;;;;9.90;39.91;99471.98;1737158;79;21196;-66
2021/03/12 09:14:12;;;;;;;7.20;4.22;;;;;;;9.89;39.92;99457.08;1721620;81;22147;-73
2021/03/12 09:16:40;;;;;;;7.05;4.37;;;;;;;9.90;39.91;99469.33;1754156;79;21154;-73
2021/03/12 09:19:13;;;;;;;8.18;4.90;;;;;;;9.91;39.88;99454.23;1752703;79;21166;-69
2021/03/12 09:21:59;;;;;;;6.35;4.47;;;;;;;9.96;39.89;99441.28;1759310;79;28176;-72
2021/03/12 09:24:30;;;;;;;7.12;5.35;;;;;;;9.91;39.88;99459.53;1756650;79;21188;-69
2021/03/12 09:26:58;;;;;;;8.90;4.40;;;;;;;9.90;39.87;99441.47;1762902;80;21376;-70
2021/03/12 09:29:44;;;;;;;7.03;4.65;;;;;;;9.94;39.86;99469.31;1801044;79;28240;-71
2021/03/12 09:32:14;;;;;;;7.12;4.37;;;;;;;9.90;39.86;99432.18;1781708;78;21235;-66
2021/03/12 09:34:44;;;;;;;5.50;4.20;;;;;;;9.89;39.91;99449.11;1800451;78;21283;-64
2021/03/12 09:37:13;;;;;;;7.80;4.47;;;;;;;9.89;39.92;99453.09;1758536;80;21214;-69
2021/03/12 09:39:59;;;;;;;6.92;5.80;;;;;;;9.94;39.93;99441.95;1793000;79;28023;-71
2021/03/12 09:42:41;;;;;;;5.03;4.10;;;;;;;10.18;39.69;99479.53;1735366;79;21124;-67
2021/03/12 09:45:21;;;;;;;7.72;5.20;;;;;;;10.39;39.24;99441.30;1779521;80;21642;-66
2021/03/12 09:47:50;;;;;;;7.28;4.15;;;;;;;10.31;39.31;99433.36;1767393;78;21057;-66
2021/03/12 09:50:22;;;;;;;6.12;3.85;;;;;;;10.24;39.40;99433.72;1782556;80;21170;-65
2021/03/12 09:52:56;;;;;;;6.37;4.65;;;;;;;10.17;39.42;99421.61;1788517;78;21194;-65
2021/03/12 09:55:28;;;;;;;6.20;4.37;;;;;;;10.14;39.46;99423.31;1791810;79;21147;-67
2021/03/12 09:57:56;;;;;;;6.60;4.58;;;;;;;10.05;39.53;99388.51;1809018;78;21409;-69
2021/03/12 10:00:26;;;;;;;8.73;4.95;;;;;;;10.08;39.56;99412.53;1767864;79;21175;-68
2021/03/12 10:02:58;;;;;;;6.62;4.42;;;;;;;10.05;39.65;99442.91;1777719;80;21183;-69
2021/03/12 10:05:29;;;;;;;6.55;4.40;;;;;;;10.04;39.65;99418.20;1731316;80;21158;-66
2021/03/12 10:08:10;;;;;;;6.58;4.15;;;;;;;10.06;39.72;99414.54;1801703;78;28245;-67
2021/03/12 10:10:55;;;;;;;6.92;4.35;;;;;;;9.99;39.75;99394.00;1776865;79;21155;-68
2021/03/12 10:13:26;;;;;;;5.78;4.30;;;;;;;9.97;39.81;99441.12;1787213;78;21371;-68
2021/03/12 10:15:56;;;;;;;7.67;4.87;;;;;;;9.96;39.82;99421.38;1786349;78;21213;-66
2021/03/12 10:18:25;;;;;;;7.70;4.22;;;;;;;9.95;39.88;99405.15;1777334;80;21203;-65
2021/03/12 10:20:54;;;;;;;6.70;4.83;;;;;;;9.95;39.90;99409.13;1777099;80;21115;-65
2021/03/12 10:23:22;;;;;;;6.92;4.72;;;;;;;9.93;39.94;99405.31;1777281;80;21120;-68
2021/03/12 10:25:49;;;;;;;8.23;5.00;;;;;;;9.92;39.98;99412.93;1734581;80;21374;-69
2021/03/12 10:28:19;;;;;;;6.45;3.90;;;;;;;9.91;39.96;99409.12;1802748;78;21183;-68
2021/03/12 10:30:57;;;;;;;5.95;4.45;;;;;;;9.90;40.00;99393.70;1764668;80;21165;-67
2021/03/12 10:33:27;;;;;;;6.80;4.50;;;;;;;9.89;40.04;99396.05;1773942;78;21191;-67
2021/03/12 10:35:59;;;;;;;5.47;4.58;;;;;;;9.88;40.09;99384.27;1770197;80;21191;-66
2021/03/12 10:38:29;;;;;;;7.17;4.70;;;;;;;9.87;40.12;99373.31;1763904;80;21371;-67
2021/03/12 10:41:01;;;;;;;5.17;4.10;;;;;;;9.86;40.18;99383.63;1795474;78;21205;-67
2021/03/12 10:43:34;;;;;;;7.22;4.60;;;;;;;9.85;40.24;99385.45;1791590;78;21143;-67
2021/03/12 10:46:07;;;;;;;8.03;4.35;;;;;;;9.84;40.31;99379.81;1760426;80;21153;-67
2021/03/12 10:48:43;;;;;;;6.33;4.03;;;;;;;9.83;40.35;99378.14;1760939;80;21229;-68
2021/03/12 10:51:16;;;;;;;6.10;4.50;;;;;;;9.82;40.41;99376.50;1783103;80;21432;-66
2021/03/12 10:53:54;;;;;;;7.97;4.60;;;;;;;9.82;40.46;99381.81;1774076;79;21166;-67
2021/03/12 10:56:23;;;;;;;6.00;4.40;;;;;;;9.81;40.51;99385.45;1784721;80;21114;-65
2021/03/12 10:58:53;;;;;;;6.92;4.75;;;;;;;9.80;40.56;99381.16;1806572;78;21151;-69
2021/03/12 11:01:29;;;;;;;6.35;4.67;;;;;;;9.79;40.63;99374.18;1808985;78;21166;-67
2021/03/12 11:04:00;;;;;;;5.17;4.37;;;;;;;9.80;40.65;99377.99;1818021;78;21194;-65
2021/03/12 11:06:37;;;;;;;9.58;4.25;;;;;;;9.80;40.67;99378.50;1790240;78;21182;-67
2021/03/12 11:09:09;;;;;;;5.60;4.35;;;;;;;9.80;40.75;99377.17;1782963;79;21203;-69
2021/03/12 11:11:37;;;;;;;7.12;4.62;;;;;;;9.80;40.78;99375.84;1784878;79;21144;-71
2021/03/12 11:14:06;;;;;;;5.50;4.03;;;;;;;9.79;40.80;99356.45;1760569;80;21179;-69
2021/03/12 11:16:33;;;;;;;5.95;4.28;;;;;;;9.80;40.81;99359.42;1790933;80;21386;-71
2021/03/12 11:19:01;;;;;;;7.08;4.92;;;;;;;9.81;40.84;99353.61;1755319;80;21181;-72
2021/03/12 11:21:31;;;;;;;6.10;4.50;;;;;;;9.80;40.89;99369.22;1762089;80;21416;-72
2021/03/12 11:23:58;;;;;;;5.95;4.53;;;;;;;9.81;40.92;99357.59;1755447;80;21130;-72
2021/03/12 11:26:28;;;;;;;7.58;4.95;;;;;;;9.81;40.95;99352.28;1746507;81;21199;-73
2021/03/12 11:28:56;;;;;;;6.08;4.47;;;;;;;9.81;40.98;99354.45;1781968;80;23590;-71
2021/03/12 11:31:25;;;;;;;6.45;4.20;;;;;;;9.82;41.00;99368.55;1767212;79;21253;-71
2021/03/12 11:33:53;;;;;;;6.53;4.72;;;;;;;9.82;41.02;99367.22;1761769;81;21208;-71
2021/03/12 11:36:21;;;;;;;5.53;3.87;;;;;;;9.83;41.02;99342.32;1766286;79;21372;-70
2021/03/12 11:38:48;;;;;;;5.45;4.85;;;;;;;9.82;41.08;99343.34;1764589;80;21198;-70
2021/03/12 11:41:16;;;;;;;6.92;4.75;;;;;;;9.82;41.09;99351.30;1761599;79;21369;-72
2021/03/12 11:43:44;;;;;;;6.15;4.67;;;;;;;9.83;41.11;99323.75;1767173;79;21170;-70
2021/03/12 11:46:11;;;;;;;5.80;4.80;;;;;;;9.82;41.13;99309.67;1765206;79;21154;-73
2021/03/12 11:48:40;;;;;;;7.62;4.55;;;;;;;9.84;41.15;99304.20;1761656;79;21181;-69
2021/03/12 11:51:07;;;;;;;7.42;5.15;;;;;;;9.83;41.19;99311.81;1767450;79;21186;-68
2021/03/12 11:53:36;;;;;;;5.25;4.17;;;;;;;9.84;41.19;99286.44;1767880;79;21396;-67
2021/03/12 11:56:09;;;;;;;6.12;4.42;;;;;;;9.86;41.21;99314.64;1768216;79;21164;-71
2021/03/12 11:58:37;;;;;;;7.10;4.85;;;;;;;9.85;41.24;99307.19;1767868;79;21170;-71
2021/03/12 12:01:05;;;;;;;7.45;5.00;;;;;;;9.86;41.26;99318.62;1769228;79;21166;-71
2021/03/12 12:03:32;;;;;;;5.85;4.42;;;;;;;9.86;41.26;99276.98;1771710;79;21191;-70
2021/03/12 12:06:00;;;;;;;7.70;4.78;;;;;;;9.87;41.29;99283.96;1766579;79;22141;-69
2021/03/12 12:08:27;;;;;;;6.60;4.55;;;;;;;9.87;41.29;99279.98;1753595;79;21198;-70